Terminal Aerodrome Forecast
Issued by NWS

Home | Current Version | Previous Version | Text Only | Print | Product List | Glossary On
Versions: 1 2 3 4 5 6 7 8 9 10 11 12 13 14 15 16 17 18 19 20
000
FTUS45 KGJT 300537
TAFMTJ
TAF
KMTJ 300537Z 3006/0106 31010KT P6SM BKN060
     FM300700 15005KT P6SM SCT060
     FM301600 33007KT P6SM SCT100
     FM302100 33010KT P6SM BKN100
     FM010300 14005KT P6SM BKN100=

USA.gov is the U.S. government's official web portal to all federal, state and local government web resources and services.